sensor_id;sensor_type;location;lat;lon;timestamp;P1;durP1;ratioP1;P2;durP2;ratioP2
78183;SDS011;67442;44.570;18.610;2023-05-17T00:01:00;30.95;;;11.48;;
78183;SDS011;67442;44.570;18.610;2023-05-17T00:03:28;27.08;;;11.18;;
78183;SDS011;67442;44.570;18.610;2023-05-17T00:05:55;35.50;;;12.57;;
78183;SDS011;67442;44.570;18.610;2023-05-17T00:08:26;29.58;;;10.93;;
78183;SDS011;67442;44.570;18.610;2023-05-17T00:10:58;32.30;;;12.57;;
78183;SDS011;67442;44.570;18.610;2023-05-17T00:13:26;26.85;;;11.73;;
78183;SDS011;67442;44.570;18.610;2023-05-17T00:15:53;29.95;;;11.52;;
78183;SDS011;67442;44.570;18.610;2023-05-17T00:18:20;25.02;;;10.15;;
78183;SDS011;67442;44.570;18.610;2023-05-17T00:20:48;31.35;;;11.75;;
78183;SDS011;67442;44.570;18.610;2023-05-17T00:23:15;32.65;;;11.82;;
78183;SDS011;67442;44.570;18.610;2023-05-17T00:25:42;28.30;;;11.10;;
78183;SDS011;67442;44.570;18.610;2023-05-17T00:28:13;28.25;;;11.35;;
78183;SDS011;67442;44.570;18.610;2023-05-17T00:30:41;35.00;;;11.30;;
78183;SDS011;67442;44.570;18.610;2023-05-17T00:33:07;34.75;;;13.02;;
78183;SDS011;67442;44.570;18.610;2023-05-17T00:35:39;27.65;;;11.07;;
78183;SDS011;67442;44.570;18.610;2023-05-17T00:38:06;28.17;;;11.63;;
78183;SDS011;67442;44.570;18.610;2023-05-17T00:40:33;31.05;;;12.15;;
78183;SDS011;67442;44.570;18.610;2023-05-17T00:43:00;28.00;;;10.93;;
78183;SDS011;67442;44.570;18.610;2023-05-17T00:45:30;24.77;;;11.45;;
78183;SDS011;67442;44.570;18.610;2023-05-17T00:48:01;25.00;;;11.52;;
78183;SDS011;67442;44.570;18.610;2023-05-17T00:50:30;27.08;;;10.82;;
78183;SDS011;67442;44.570;18.610;2023-05-17T00:52:57;23.20;;;10.70;;
78183;SDS011;67442;44.570;18.610;2023-05-17T00:55:25;32.03;;;11.02;;
78183;SDS011;67442;44.570;18.610;2023-05-17T00:57:56;27.90;;;10.70;;
78183;SDS011;67442;44.570;18.610;2023-05-17T01:00:24;26.48;;;10.95;;
78183;SDS011;67442;44.570;18.610;2023-05-17T01:02:51;25.83;;;10.80;;
78183;SDS011;67442;44.570;18.610;2023-05-17T01:05:18;24.70;;;10.82;;
78183;SDS011;67442;44.570;18.610;2023-05-17T01:07:46;25.33;;;11.18;;
78183;SDS011;67442;44.570;18.610;2023-05-17T01:10:17;29.08;;;10.48;;
78183;SDS011;67442;44.570;18.610;2023-05-17T01:15:14;30.67;;;11.40;;
78183;SDS011;67442;44.570;18.610;2023-05-17T01:20:50;31.98;;;10.60;;
78183;SDS011;67442;44.570;18.610;2023-05-17T01:28:40;25.02;;;10.82;;
78183;SDS011;67442;44.570;18.610;2023-05-17T01:31:10;22.27;;;9.82;;
78183;SDS011;67442;44.570;18.610;2023-05-17T01:33:42;27.58;;;10.40;;
78183;SDS011;67442;44.570;18.610;2023-05-17T01:36:10;21.65;;;10.32;;
78183;SDS011;67442;44.570;18.610;2023-05-17T01:38:38;24.75;;;10.27;;
78183;SDS011;67442;44.570;18.610;2023-05-17T01:41:09;22.35;;;9.93;;
78183;SDS011;67442;44.570;18.610;2023-05-17T01:46:29;20.60;;;9.80;;
78183;SDS011;67442;44.570;18.610;2023-05-17T01:51:45;21.33;;;9.38;;
78183;SDS011;67442;44.570;18.610;2023-05-17T01:54:20;20.75;;;8.98;;
78183;SDS011;67442;44.570;18.610;2023-05-17T01:56:59;26.60;;;10.43;;
78183;SDS011;67442;44.570;18.610;2023-05-17T01:59:29;26.02;;;9.93;;
78183;SDS011;67442;44.570;18.610;2023-05-17T02:01:58;29.70;;;10.55;;
78183;SDS011;67442;44.570;18.610;2023-05-17T02:04:33;24.77;;;10.13;;
78183;SDS011;67442;44.570;18.610;2023-05-17T02:07:01;26.67;;;9.90;;
78183;SDS011;67442;44.570;18.610;2023-05-17T02:09:28;24.60;;;9.60;;
78183;SDS011;67442;44.570;18.610;2023-05-17T02:12:00;21.83;;;9.35;;
78183;SDS011;67442;44.570;18.610;2023-05-17T02:14:27;23.88;;;10.27;;
78183;SDS011;67442;44.570;18.610;2023-05-17T02:16:58;24.42;;;9.00;;
78183;SDS011;67442;44.570;18.610;2023-05-17T02:19:25;22.23;;;9.52;;
78183;SDS011;67442;44.570;18.610;2023-05-17T02:21:52;20.63;;;9.80;;
78183;SDS011;67442;44.570;18.610;2023-05-17T02:24:19;18.05;;;9.02;;
78183;SDS011;67442;44.570;18.610;2023-05-17T02:26:47;21.08;;;9.25;;
78183;SDS011;67442;44.570;18.610;2023-05-17T02:29:14;23.95;;;9.25;;
78183;SDS011;67442;44.570;18.610;2023-05-17T02:31:45;21.25;;;8.75;;
78183;SDS011;67442;44.570;18.610;2023-05-17T02:34:12;22.63;;;8.98;;
78183;SDS011;67442;44.570;18.610;2023-05-17T02:36:40;22.13;;;9.20;;
78183;SDS011;67442;44.570;18.610;2023-05-17T02:39:09;21.15;;;9.18;;
78183;SDS011;67442;44.570;18.610;2023-05-17T02:41:40;21.02;;;9.45;;
78183;SDS011;67442;44.570;18.610;2023-05-17T02:44:08;26.02;;;8.32;;
78183;SDS011;67442;44.570;18.610;2023-05-17T02:46:35;18.90;;;8.73;;
78183;SDS011;67442;44.570;18.610;2023-05-17T02:49:03;19.33;;;8.15;;
78183;SDS011;67442;44.570;18.610;2023-05-17T02:51:30;20.45;;;9.27;;
78183;SDS011;67442;44.570;18.610;2023-05-17T02:54:01;20.27;;;8.68;;
78183;SDS011;67442;44.570;18.610;2023-05-17T02:56:28;18.58;;;8.73;;
78183;SDS011;67442;44.570;18.610;2023-05-17T02:58:56;21.85;;;9.05;;
78183;SDS011;67442;44.570;18.610;2023-05-17T03:01:26;21.13;;;9.93;;
78183;SDS011;67442;44.570;18.610;2023-05-17T03:03:53;20.70;;;9.18;;
78183;SDS011;67442;44.570;18.610;2023-05-17T03:06:24;20.73;;;8.88;;
78183;SDS011;67442;44.570;18.610;2023-05-17T03:08:51;17.75;;;8.48;;
78183;SDS011;67442;44.570;18.610;2023-05-17T03:11:19;16.27;;;8.30;;
78183;SDS011;67442;44.570;18.610;2023-05-17T03:13:46;20.85;;;9.23;;
78183;SDS011;67442;44.570;18.610;2023-05-17T03:16:16;22.75;;;8.35;;
78183;SDS011;67442;44.570;18.610;2023-05-17T03:18:43;20.55;;;9.27;;
78183;SDS011;67442;44.570;18.610;2023-05-17T03:21:10;18.42;;;8.10;;
78183;SDS011;67442;44.570;18.610;2023-05-17T03:23:38;17.13;;;8.45;;
78183;SDS011;67442;44.570;18.610;2023-05-17T03:26:05;19.35;;;8.20;;
78183;SDS011;67442;44.570;18.610;2023-05-17T03:28:33;21.35;;;8.55;;
78183;SDS011;67442;44.570;18.610;2023-05-17T03:31:04;17.63;;;7.97;;
78183;SDS011;67442;44.570;18.610;2023-05-17T03:33:31;16.33;;;8.43;;
78183;SDS011;67442;44.570;18.610;2023-05-17T03:35:58;18.58;;;8.52;;
78183;SDS011;67442;44.570;18.610;2023-05-17T03:38:26;17.65;;;7.90;;
78183;SDS011;67442;44.570;18.610;2023-05-17T03:40:53;17.35;;;7.78;;
78183;SDS011;67442;44.570;18.610;2023-05-17T03:43:21;19.42;;;8.02;;
78183;SDS011;67442;44.570;18.610;2023-05-17T03:45:51;20.60;;;8.93;;
78183;SDS011;67442;44.570;18.610;2023-05-17T03:48:22;18.65;;;7.60;;
78183;SDS011;67442;44.570;18.610;2023-05-17T03:50:49;16.23;;;7.45;;
78183;SDS011;67442;44.570;18.610;2023-05-17T03:53:17;15.60;;;7.80;;
78183;SDS011;67442;44.570;18.610;2023-05-17T03:55:44;21.67;;;8.43;;
78183;SDS011;67442;44.570;18.610;2023-05-17T03:58:11;14.43;;;7.57;;
78183;SDS011;67442;44.570;18.610;2023-05-17T04:03:05;20.20;;;8.48;;
78183;SDS011;67442;44.570;18.610;2023-05-17T04:05:33;15.77;;;7.97;;
78183;SDS011;67442;44.570;18.610;2023-05-17T04:08:00;16.45;;;7.35;;
78183;SDS011;67442;44.570;18.610;2023-05-17T04:10:27;19.50;;;7.70;;
78183;SDS011;67442;44.570;18.610;2023-05-17T04:12:54;14.57;;;7.35;;
78183;SDS011;67442;44.570;18.610;2023-05-17T04:15:25;16.38;;;7.82;;
78183;SDS011;67442;44.570;18.610;2023-05-17T04:17:52;17.52;;;7.43;;
78183;SDS011;67442;44.570;18.610;2023-05-17T04:20:19;18.17;;;8.32;;
78183;SDS011;67442;44.570;18.610;2023-05-17T04:22:47;19.30;;;7.97;;
78183;SDS011;67442;44.570;18.610;2023-05-17T04:25:14;17.25;;;7.63;;
78183;SDS011;67442;44.570;18.610;2023-05-17T04:27:43;19.42;;;7.90;;
78183;SDS011;67442;44.570;18.610;2023-05-17T04:30:12;15.20;;;7.05;;
78183;SDS011;67442;44.570;18.610;2023-05-17T04:32:40;17.60;;;8.18;;
78183;SDS011;67442;44.570;18.610;2023-05-17T04:35:07;17.15;;;7.28;;
78183;SDS011;67442;44.570;18.610;2023-05-17T04:37:35;18.83;;;7.10;;
78183;SDS011;67442;44.570;18.610;2023-05-17T04:40:07;19.85;;;7.75;;
78183;SDS011;67442;44.570;18.610;2023-05-17T04:42:37;19.77;;;7.32;;
78183;SDS011;67442;44.570;18.610;2023-05-17T04:45:04;15.68;;;7.57;;
78183;SDS011;67442;44.570;18.610;2023-05-17T04:47:34;12.27;;;7.10;;
78183;SDS011;67442;44.570;18.610;2023-05-17T04:50:02;12.60;;;7.10;;
78183;SDS011;67442;44.570;18.610;2023-05-17T04:52:29;18.77;;;7.85;;
78183;SDS011;67442;44.570;18.610;2023-05-17T04:55:01;29.88;;;9.50;;
78183;SDS011;67442;44.570;18.610;2023-05-17T04:57:28;123.20;;;20.67;;
78183;SDS011;67442;44.570;18.610;2023-05-17T04:59:54;167.02;;;31.30;;
78183;SDS011;67442;44.570;18.610;2023-05-17T05:02:21;197.88;;;37.22;;
78183;SDS011;67442;44.570;18.610;2023-05-17T05:04:52;204.55;;;42.25;;
78183;SDS011;67442;44.570;18.610;2023-05-17T05:07:19;211.63;;;43.85;;
78183;SDS011;67442;44.570;18.610;2023-05-17T05:09:47;232.23;;;45.35;;
78183;SDS011;67442;44.570;18.610;2023-05-17T05:12:17;226.27;;;44.83;;
78183;SDS011;67442;44.570;18.610;2023-05-17T05:14:45;247.73;;;48.05;;
78183;SDS011;67442;44.570;18.610;2023-05-17T05:17:16;233.70;;;45.80;;
78183;SDS011;67442;44.570;18.610;2023-05-17T05:19:43;240.35;;;47.28;;
78183;SDS011;67442;44.570;18.610;2023-05-17T05:22:11;223.65;;;44.47;;
78183;SDS011;67442;44.570;18.610;2023-05-17T05:24:38;207.43;;;44.13;;
78183;SDS011;67442;44.570;18.610;2023-05-17T05:27:05;212.70;;;45.25;;
78183;SDS011;67442;44.570;18.610;2023-05-17T05:29:37;224.35;;;42.95;;
78183;SDS011;67442;44.570;18.610;2023-05-17T05:32:04;202.82;;;42.53;;
78183;SDS011;67442;44.570;18.610;2023-05-17T05:34:33;196.90;;;41.55;;
78183;SDS011;67442;44.570;18.610;2023-05-17T05:37:01;203.48;;;40.75;;
78183;SDS011;67442;44.570;18.610;2023-05-17T05:39:27;179.30;;;40.90;;
78183;SDS011;67442;44.570;18.610;2023-05-17T05:41:54;176.73;;;40.63;;
78183;SDS011;67442;44.570;18.610;2023-05-17T05:44:22;184.30;;;39.03;;
78183;SDS011;67442;44.570;18.610;2023-05-17T05:46:53;187.35;;;40.38;;
78183;SDS011;67442;44.570;18.610;2023-05-17T05:49:20;168.30;;;38.45;;
78183;SDS011;67442;44.570;18.610;2023-05-17T05:51:47;166.02;;;36.60;;
78183;SDS011;67442;44.570;18.610;2023-05-17T05:54:15;148.07;;;35.88;;
78183;SDS011;67442;44.570;18.610;2023-05-17T05:56:42;152.85;;;35.53;;
78183;SDS011;67442;44.570;18.610;2023-05-17T05:59:13;167.32;;;35.55;;
78183;SDS011;67442;44.570;18.610;2023-05-17T06:01:44;156.35;;;34.65;;
78183;SDS011;67442;44.570;18.610;2023-05-17T06:04:12;142.02;;;35.40;;
78183;SDS011;67442;44.570;18.610;2023-05-17T06:06:39;159.45;;;34.97;;
78183;SDS011;67442;44.570;18.610;2023-05-17T06:09:06;137.00;;;34.13;;
78183;SDS011;67442;44.570;18.610;2023-05-17T06:11:41;135.93;;;33.10;;
78183;SDS011;67442;44.570;18.610;2023-05-17T06:14:13;144.88;;;34.00;;
78183;SDS011;67442;44.570;18.610;2023-05-17T06:16:44;135.63;;;32.95;;
78183;SDS011;67442;44.570;18.610;2023-05-17T06:19:15;135.95;;;32.70;;
78183;SDS011;67442;44.570;18.610;2023-05-17T06:21:46;126.45;;;31.42;;
78183;SDS011;67442;44.570;18.610;2023-05-17T06:24:14;130.23;;;30.58;;
78183;SDS011;67442;44.570;18.610;2023-05-17T06:26:45;138.27;;;32.80;;
78183;SDS011;67442;44.570;18.610;2023-05-17T06:29:16;114.47;;;29.90;;
78183;SDS011;67442;44.570;18.610;2023-05-17T06:31:46;130.77;;;31.08;;
78183;SDS011;67442;44.570;18.610;2023-05-17T06:34:14;110.07;;;29.30;;
78183;SDS011;67442;44.570;18.610;2023-05-17T06:36:45;118.07;;;27.95;;
78183;SDS011;67442;44.570;18.610;2023-05-17T06:39:12;117.28;;;29.48;;
78183;SDS011;67442;44.570;18.610;2023-05-17T06:41:39;103.80;;;27.85;;
78183;SDS011;67442;44.570;18.610;2023-05-17T06:44:07;101.80;;;27.33;;
78183;SDS011;67442;44.570;18.610;2023-05-17T06:46:38;109.38;;;27.40;;
78183;SDS011;67442;44.570;18.610;2023-05-17T06:49:05;103.05;;;26.80;;
78183;SDS011;67442;44.570;18.610;2023-05-17T06:51:36;86.72;;;24.40;;
78183;SDS011;67442;44.570;18.610;2023-05-17T06:54:04;90.18;;;25.20;;
78183;SDS011;67442;44.570;18.610;2023-05-17T06:56:31;95.05;;;24.48;;
78183;SDS011;67442;44.570;18.610;2023-05-17T06:58:58;84.60;;;23.95;;
78183;SDS011;67442;44.570;18.610;2023-05-17T07:01:29;84.60;;;24.67;;
78183;SDS011;67442;44.570;18.610;2023-05-17T07:03:57;97.50;;;23.67;;
78183;SDS011;67442;44.570;18.610;2023-05-17T07:06:23;75.28;;;21.85;;
78183;SDS011;67442;44.570;18.610;2023-05-17T07:08:51;76.05;;;23.10;;
78183;SDS011;67442;44.570;18.610;2023-05-17T07:11:18;90.95;;;22.88;;
78183;SDS011;67442;44.570;18.610;2023-05-17T07:13:49;96.95;;;23.50;;
78183;SDS011;67442;44.570;18.610;2023-05-17T07:16:16;84.22;;;22.75;;
78183;SDS011;67442;44.570;18.610;2023-05-17T07:18:44;81.68;;;21.95;;
78183;SDS011;67442;44.570;18.610;2023-05-17T07:21:11;88.65;;;23.45;;
78183;SDS011;67442;44.570;18.610;2023-05-17T07:23:38;79.82;;;22.83;;
78183;SDS011;67442;44.570;18.610;2023-05-17T07:26:06;76.55;;;21.67;;
78183;SDS011;67442;44.570;18.610;2023-05-17T07:28:37;83.93;;;22.45;;
78183;SDS011;67442;44.570;18.610;2023-05-17T07:31:04;75.75;;;21.63;;
78183;SDS011;67442;44.570;18.610;2023-05-17T07:33:32;70.03;;;20.60;;
78183;SDS011;67442;44.570;18.610;2023-05-17T07:35:59;67.30;;;20.45;;
78183;SDS011;67442;44.570;18.610;2023-05-17T07:38:30;77.15;;;21.38;;
78183;SDS011;67442;44.570;18.610;2023-05-17T07:41:00;79.00;;;21.17;;
78183;SDS011;67442;44.570;18.610;2023-05-17T07:43:27;75.90;;;20.42;;
78183;SDS011;67442;44.570;18.610;2023-05-17T07:45:54;65.32;;;19.77;;
78183;SDS011;67442;44.570;18.610;2023-05-17T07:48:21;73.75;;;20.15;;
78183;SDS011;67442;44.570;18.610;2023-05-17T07:50:49;70.10;;;20.08;;
78183;SDS011;67442;44.570;18.610;2023-05-17T07:53:16;59.47;;;19.33;;
78183;SDS011;67442;44.570;18.610;2023-05-17T07:55:43;66.32;;;20.13;;
78183;SDS011;67442;44.570;18.610;2023-05-17T07:58:10;67.95;;;20.80;;
78183;SDS011;67442;44.570;18.610;2023-05-17T08:00:38;67.05;;;19.90;;
78183;SDS011;67442;44.570;18.610;2023-05-17T08:03:05;69.90;;;19.88;;
78183;SDS011;67442;44.570;18.610;2023-05-17T08:05:33;69.85;;;20.80;;
78183;SDS011;67442;44.570;18.610;2023-05-17T08:07:59;64.68;;;19.42;;
78183;SDS011;67442;44.570;18.610;2023-05-17T08:10:26;59.70;;;19.40;;
78183;SDS011;67442;44.570;18.610;2023-05-17T08:12:53;54.15;;;17.80;;
78183;SDS011;67442;44.570;18.610;2023-05-17T08:15:20;60.97;;;18.10;;
78183;SDS011;67442;44.570;18.610;2023-05-17T08:17:46;53.90;;;16.35;;
78183;SDS011;67442;44.570;18.610;2023-05-17T08:20:18;58.45;;;18.23;;
78183;SDS011;67442;44.570;18.610;2023-05-17T08:22:45;60.85;;;17.98;;
78183;SDS011;67442;44.570;18.610;2023-05-17T08:25:13;54.63;;;17.65;;
78183;SDS011;67442;44.570;18.610;2023-05-17T08:27:40;53.95;;;17.90;;
78183;SDS011;67442;44.570;18.610;2023-05-17T08:30:11;57.10;;;16.95;;
78183;SDS011;67442;44.570;18.610;2023-05-17T08:32:38;57.33;;;16.55;;
78183;SDS011;67442;44.570;18.610;2023-05-17T08:35:06;52.90;;;17.00;;
78183;SDS011;67442;44.570;18.610;2023-05-17T08:37:32;56.08;;;17.50;;
78183;SDS011;67442;44.570;18.610;2023-05-17T08:40:00;57.55;;;18.02;;
78183;SDS011;67442;44.570;18.610;2023-05-17T08:42:28;49.38;;;16.55;;
78183;SDS011;67442;44.570;18.610;2023-05-17T08:44:59;55.70;;;16.98;;
78183;SDS011;67442;44.570;18.610;2023-05-17T08:47:26;56.00;;;17.10;;
78183;SDS011;67442;44.570;18.610;2023-05-17T08:49:56;51.75;;;17.45;;
78183;SDS011;67442;44.570;18.610;2023-05-17T08:52:28;53.30;;;17.90;;
78183;SDS011;67442;44.570;18.610;2023-05-17T08:54:59;54.00;;;16.87;;
78183;SDS011;67442;44.570;18.610;2023-05-17T08:57:29;49.42;;;16.63;;
78183;SDS011;67442;44.570;18.610;2023-05-17T08:59:58;51.15;;;16.40;;
78183;SDS011;67442;44.570;18.610;2023-05-17T09:02:25;55.42;;;17.80;;
78183;SDS011;67442;44.570;18.610;2023-05-17T09:05:00;56.97;;;16.65;;
78183;SDS011;67442;44.570;18.610;2023-05-17T09:07:27;49.47;;;16.63;;
78183;SDS011;67442;44.570;18.610;2023-05-17T09:09:59;47.63;;;17.08;;
78183;SDS011;67442;44.570;18.610;2023-05-17T09:12:33;41.70;;;15.20;;
78183;SDS011;67442;44.570;18.610;2023-05-17T09:15:21;46.22;;;15.65;;
78183;SDS011;67442;44.570;18.610;2023-05-17T09:17:52;49.60;;;16.02;;
78183;SDS011;67442;44.570;18.610;2023-05-17T09:20:26;41.60;;;15.63;;
78183;SDS011;67442;44.570;18.610;2023-05-17T09:23:01;52.22;;;16.42;;
78183;SDS011;67442;44.570;18.610;2023-05-17T09:25:32;53.55;;;16.60;;
78183;SDS011;67442;44.570;18.610;2023-05-17T09:27:59;47.25;;;15.13;;
78183;SDS011;67442;44.570;18.610;2023-05-17T09:30:34;45.55;;;15.55;;
78183;SDS011;67442;44.570;18.610;2023-05-17T09:33:05;46.35;;;15.77;;
78183;SDS011;67442;44.570;18.610;2023-05-17T09:35:33;46.70;;;15.80;;
78183;SDS011;67442;44.570;18.610;2023-05-17T09:40:41;43.70;;;14.18;;
78183;SDS011;67442;44.570;18.610;2023-05-17T09:43:13;45.00;;;15.20;;
78183;SDS011;67442;44.570;18.610;2023-05-17T09:45:45;42.25;;;15.32;;
78183;SDS011;67442;44.570;18.610;2023-05-17T09:48:25;41.55;;;14.52;;
78183;SDS011;67442;44.570;18.610;2023-05-17T09:50:56;40.53;;;15.18;;
78183;SDS011;67442;44.570;18.610;2023-05-17T09:53:26;46.22;;;15.00;;
78183;SDS011;67442;44.570;18.610;2023-05-17T09:56:00;44.15;;;14.93;;
78183;SDS011;67442;44.570;18.610;2023-05-17T09:58:44;42.05;;;13.88;;
78183;SDS011;67442;44.570;18.610;2023-05-17T10:01:14;45.80;;;15.57;;
78183;SDS011;67442;44.570;18.610;2023-05-17T10:03:42;44.70;;;15.80;;
78183;SDS011;67442;44.570;18.610;2023-05-17T10:06:08;38.25;;;14.82;;
78183;SDS011;67442;44.570;18.610;2023-05-17T10:08:37;41.72;;;15.90;;
78183;SDS011;67442;44.570;18.610;2023-05-17T10:11:08;49.25;;;14.75;;
78183;SDS011;67442;44.570;18.610;2023-05-17T10:13:38;39.25;;;14.60;;
78183;SDS011;67442;44.570;18.610;2023-05-17T10:16:09;48.10;;;15.82;;
78183;SDS011;67442;44.570;18.610;2023-05-17T10:18:37;37.58;;;13.85;;
78183;SDS011;67442;44.570;18.610;2023-05-17T10:21:06;44.97;;;14.82;;
78183;SDS011;67442;44.570;18.610;2023-05-17T10:23:35;47.85;;;15.15;;
78183;SDS011;67442;44.570;18.610;2023-05-17T10:26:03;43.22;;;14.45;;
78183;SDS011;67442;44.570;18.610;2023-05-17T10:28:31;44.22;;;14.52;;
78183;SDS011;67442;44.570;18.610;2023-05-17T10:30:59;39.55;;;13.95;;
78183;SDS011;67442;44.570;18.610;2023-05-17T10:33:28;37.00;;;13.80;;
78183;SDS011;67442;44.570;18.610;2023-05-17T10:36:01;37.25;;;13.27;;
78183;SDS011;67442;44.570;18.610;2023-05-17T10:38:31;41.10;;;14.15;;
78183;SDS011;67442;44.570;18.610;2023-05-17T10:41:03;39.92;;;13.95;;
78183;SDS011;67442;44.570;18.610;2023-05-17T10:43:30;43.78;;;14.68;;
78183;SDS011;67442;44.570;18.610;2023-05-17T10:46:01;39.17;;;13.77;;
78183;SDS011;67442;44.570;18.610;2023-05-17T10:48:29;41.83;;;14.02;;
78183;SDS011;67442;44.570;18.610;2023-05-17T10:51:03;35.88;;;13.82;;
78183;SDS011;67442;44.570;18.610;2023-05-17T10:53:32;42.72;;;13.73;;
78183;SDS011;67442;44.570;18.610;2023-05-17T10:56:00;37.75;;;13.43;;
78183;SDS011;67442;44.570;18.610;2023-05-17T10:58:27;42.45;;;14.35;;
78183;SDS011;67442;44.570;18.610;2023-05-17T11:00:54;35.67;;;13.73;;
78183;SDS011;67442;44.570;18.610;2023-05-17T11:03:25;38.85;;;13.32;;
78183;SDS011;67442;44.570;18.610;2023-05-17T11:08:45;33.47;;;13.13;;
78183;SDS011;67442;44.570;18.610;2023-05-17T11:11:33;35.40;;;12.82;;
78183;SDS011;67442;44.570;18.610;2023-05-17T11:14:03;36.15;;;13.35;;
78183;SDS011;67442;44.570;18.610;2023-05-17T11:16:34;31.52;;;12.30;;
78183;SDS011;67442;44.570;18.610;2023-05-17T11:19:06;35.67;;;13.38;;
78183;SDS011;67442;44.570;18.610;2023-05-17T11:21:44;38.33;;;12.75;;
78183;SDS011;67442;44.570;18.610;2023-05-17T11:24:13;39.30;;;12.93;;
78183;SDS011;67442;44.570;18.610;2023-05-17T11:26:47;35.88;;;13.23;;
78183;SDS011;67442;44.570;18.610;2023-05-17T11:29:16;37.80;;;12.90;;
78183;SDS011;67442;44.570;18.610;2023-05-17T11:31:44;33.60;;;12.57;;
78183;SDS011;67442;44.570;18.610;2023-05-17T11:34:17;37.42;;;12.57;;
78183;SDS011;67442;44.570;18.610;2023-05-17T11:36:51;34.85;;;13.60;;
78183;SDS011;67442;44.570;18.610;2023-05-17T11:39:20;36.20;;;13.40;;
78183;SDS011;67442;44.570;18.610;2023-05-17T11:41:54;34.50;;;13.20;;
78183;SDS011;67442;44.570;18.610;2023-05-17T11:44:29;32.42;;;12.32;;
78183;SDS011;67442;44.570;18.610;2023-05-17T11:47:01;34.10;;;12.85;;
78183;SDS011;67442;44.570;18.610;2023-05-17T11:49:38;31.38;;;12.27;;
78183;SDS011;67442;44.570;18.610;2023-05-17T11:52:06;26.20;;;11.82;;
78183;SDS011;67442;44.570;18.610;2023-05-17T11:54:33;33.40;;;12.60;;
78183;SDS011;67442;44.570;18.610;2023-05-17T11:57:02;33.33;;;13.00;;
78183;SDS011;67442;44.570;18.610;2023-05-17T11:59:36;30.17;;;12.43;;
78183;SDS011;67442;44.570;18.610;2023-05-17T12:02:04;30.02;;;12.32;;
78183;SDS011;67442;44.570;18.610;2023-05-17T12:04:33;36.50;;;12.27;;
78183;SDS011;67442;44.570;18.610;2023-05-17T12:07:07;34.40;;;12.40;;
78183;SDS011;67442;44.570;18.610;2023-05-17T12:09:35;28.02;;;12.57;;
78183;SDS011;67442;44.570;18.610;2023-05-17T12:12:04;35.70;;;12.45;;
78183;SDS011;67442;44.570;18.610;2023-05-17T12:14:33;33.30;;;11.60;;
78183;SDS011;67442;44.570;18.610;2023-05-17T12:16:59;31.45;;;12.07;;
78183;SDS011;67442;44.570;18.610;2023-05-17T12:19:30;30.83;;;11.98;;
78183;SDS011;67442;44.570;18.610;2023-05-17T12:24:36;31.55;;;12.13;;
78183;SDS011;67442;44.570;18.610;2023-05-17T12:27:05;26.85;;;11.30;;
78183;SDS011;67442;44.570;18.610;2023-05-17T12:29:31;38.70;;;11.88;;
78183;SDS011;67442;44.570;18.610;2023-05-17T12:31:58;30.33;;;11.68;;
78183;SDS011;67442;44.570;18.610;2023-05-17T12:34:26;31.85;;;12.32;;
78183;SDS011;67442;44.570;18.610;2023-05-17T12:36:55;29.85;;;12.38;;
78183;SDS011;67442;44.570;18.610;2023-05-17T12:39:27;27.42;;;11.05;;
78183;SDS011;67442;44.570;18.610;2023-05-17T12:41:55;27.20;;;10.68;;
78183;SDS011;67442;44.570;18.610;2023-05-17T12:44:27;27.35;;;11.57;;
78183;SDS011;67442;44.570;18.610;2023-05-17T12:46:55;36.70;;;12.63;;
78183;SDS011;67442;44.570;18.610;2023-05-17T12:49:22;30.52;;;10.98;;
78183;SDS011;67442;44.570;18.610;2023-05-17T12:51:49;29.58;;;11.13;;
78183;SDS011;67442;44.570;18.610;2023-05-17T12:54:25;32.17;;;12.20;;
78183;SDS011;67442;44.570;18.610;2023-05-17T12:56:56;28.67;;;11.55;;
78183;SDS011;67442;44.570;18.610;2023-05-17T12:59:26;28.00;;;11.23;;
78183;SDS011;67442;44.570;18.610;2023-05-17T13:01:58;26.88;;;10.82;;
78183;SDS011;67442;44.570;18.610;2023-05-17T13:04:29;28.90;;;12.13;;
78183;SDS011;67442;44.570;18.610;2023-05-17T13:06:57;30.80;;;11.52;;
78183;SDS011;67442;44.570;18.610;2023-05-17T13:09:26;28.33;;;10.95;;
78183;SDS011;67442;44.570;18.610;2023-05-17T13:11:56;25.48;;;11.48;;
78183;SDS011;67442;44.570;18.610;2023-05-17T13:14:37;28.70;;;11.25;;
78183;SDS011;67442;44.570;18.610;2023-05-17T13:17:15;23.27;;;10.30;;
78183;SDS011;67442;44.570;18.610;2023-05-17T13:19:46;28.77;;;11.07;;
78183;SDS011;67442;44.570;18.610;2023-05-17T13:22:13;27.17;;;11.20;;
78183;SDS011;67442;44.570;18.610;2023-05-17T13:24:40;25.25;;;10.90;;
78183;SDS011;67442;44.570;18.610;2023-05-17T13:27:12;28.88;;;10.68;;
78183;SDS011;67442;44.570;18.610;2023-05-17T13:29:40;27.67;;;11.15;;
78183;SDS011;67442;44.570;18.610;2023-05-17T13:32:09;26.15;;;10.93;;
78183;SDS011;67442;44.570;18.610;2023-05-17T13:34:36;25.38;;;10.93;;
78183;SDS011;67442;44.570;18.610;2023-05-17T13:37:07;31.75;;;12.40;;
78183;SDS011;67442;44.570;18.610;2023-05-17T13:39:35;30.00;;;11.13;;
78183;SDS011;67442;44.570;18.610;2023-05-17T13:42:02;25.75;;;10.30;;
78183;SDS011;67442;44.570;18.610;2023-05-17T13:44:30;27.15;;;10.57;;
78183;SDS011;67442;44.570;18.610;2023-05-17T13:46:57;25.02;;;10.55;;
78183;SDS011;67442;44.570;18.610;2023-05-17T13:49:24;26.48;;;10.13;;
78183;SDS011;67442;44.570;18.610;2023-05-17T13:51:53;26.30;;;10.05;;
78183;SDS011;67442;44.570;18.610;2023-05-17T13:54:21;25.67;;;10.43;;
78183;SDS011;67442;44.570;18.610;2023-05-17T13:56:48;25.52;;;9.95;;
78183;SDS011;67442;44.570;18.610;2023-05-17T13:59:18;26.63;;;10.90;;
78183;SDS011;67442;44.570;18.610;2023-05-17T14:01:45;26.48;;;10.48;;
78183;SDS011;67442;44.570;18.610;2023-05-17T14:04:12;25.10;;;10.02;;
78183;SDS011;67442;44.570;18.610;2023-05-17T14:06:40;23.67;;;10.45;;
78183;SDS011;67442;44.570;18.610;2023-05-17T14:09:09;24.60;;;9.85;;
78183;SDS011;67442;44.570;18.610;2023-05-17T14:11:36;22.02;;;9.70;;
78183;SDS011;67442;44.570;18.610;2023-05-17T14:14:04;25.63;;;10.57;;
78183;SDS011;67442;44.570;18.610;2023-05-17T14:16:35;24.27;;;10.10;;
78183;SDS011;67442;44.570;18.610;2023-05-17T14:19:02;22.10;;;9.77;;
78183;SDS011;67442;44.570;18.610;2023-05-17T14:21:29;21.48;;;9.25;;
78183;SDS011;67442;44.570;18.610;2023-05-17T14:23:56;24.48;;;10.23;;
78183;SDS011;67442;44.570;18.610;2023-05-17T14:26:23;23.70;;;10.00;;
78183;SDS011;67442;44.570;18.610;2023-05-17T14:28:51;20.70;;;9.05;;
78183;SDS011;67442;44.570;18.610;2023-05-17T14:31:18;23.52;;;9.52;;
78183;SDS011;67442;44.570;18.610;2023-05-17T14:33:45;23.95;;;9.93;;
78183;SDS011;67442;44.570;18.610;2023-05-17T14:36:16;23.05;;;10.13;;
78183;SDS011;67442;44.570;18.610;2023-05-17T14:38:47;21.80;;;9.93;;
78183;SDS011;67442;44.570;18.610;2023-05-17T14:41:18;24.23;;;9.93;;
78183;SDS011;67442;44.570;18.610;2023-05-17T14:43:46;24.38;;;10.52;;
78183;SDS011;67442;44.570;18.610;2023-05-17T14:46:17;19.77;;;9.20;;
78183;SDS011;67442;44.570;18.610;2023-05-17T14:48:44;25.70;;;10.07;;